Time;durP1;ratioP1;P1;durP2;ratioP2;P2;SDS_P1;SDS_P2;PMS_P1;PMS_P2;Temp;Humidity;BMP_temperature;BMP_pressure;BME280_temperature;BME280_humidity;BME280_pressure;Samples;Min_cycle;Max_cycle;Signal;HPM_P1;HPM_P2
2022/04/29 00:00:43;;;;;;;11.10;6.90;;;6.60;99.90;;;;;;5041861;28;20149;-50
2022/04/29 00:03:11;;;;;;;11.20;6.25;;;6.60;99.90;;;;;;5046329;28;20512;-49
2022/04/29 00:05:39;;;;;;;15.15;7.00;;;6.60;99.90;;;;;;5044690;28;20081;-50
2022/04/29 00:08:07;;;;;;;12.38;6.82;;;6.50;99.90;;;;;;5037051;28;20432;-45
2022/04/29 00:10:34;;;;;;;13.50;7.22;;;6.50;99.90;;;;;;5044961;28;20587;-50
2022/04/29 00:13:01;;;;;;;11.00;7.20;;;6.50;99.90;;;;;;5042423;28;20574;-50
2022/04/29 00:15:28;;;;;;;9.85;6.47;;;6.50;99.90;;;;;;5043996;28;20041;-46
2022/04/29 00:17:55;;;;;;;11.30;6.97;;;6.50;99.90;;;;;;5040170;28;20716;-50
2022/04/29 00:20:21;;;;;;;9.80;6.93;;;6.40;99.90;;;;;;5041070;28;20048;-49
2022/04/29 00:22:48;;;;;;;12.48;7.15;;;6.40;99.90;;;;;;5046005;28;20045;-46
2022/04/29 00:25:14;;;;;;;13.38;7.05;;;6.50;99.90;;;;;;5042472;28;20068;-48
2022/04/29 00:27:41;;;;;;;15.82;7.53;;;6.50;99.90;;;;;;5042303;28;20045;-46
2022/04/29 00:30:10;;;;;;;12.95;7.05;;;6.40;99.90;;;;;;5041857;28;20049;-47
2022/04/29 00:32:38;;;;;;;14.63;8.55;;;6.40;99.90;;;;;;5043120;28;20502;-49
2022/04/29 00:35:05;;;;;;;15.40;8.20;;;6.40;99.90;;;;;;5023098;28;20465;-46
2022/04/29 00:37:32;;;;;;;14.15;7.85;;;6.30;99.90;;;;;;5043072;28;20071;-45
2022/04/29 00:39:58;;;;;;;17.08;8.68;;;6.30;99.90;;;;;;5043353;28;20048;-47
2022/04/29 00:42:25;;;;;;;14.98;8.57;;;6.30;99.90;;;;;;5026231;28;20123;-46
2022/04/29 00:44:51;;;;;;;12.52;7.70;;;6.20;99.90;;;;;;5008416;28;20880;-46
2022/04/29 00:47:19;;;;;;;14.90;9.10;;;6.20;99.90;;;;;;5025894;28;20158;-51
2022/04/29 00:49:47;;;;;;;16.20;8.98;;;6.20;99.90;;;;;;5022638;28;20049;-46
2022/04/29 00:52:16;;;;;;;15.32;9.43;;;6.20;99.90;;;;;;5041554;28;20103;-47
2022/04/29 00:54:45;;;;;;;14.00;9.25;;;6.10;99.90;;;;;;5043052;28;20080;-49
2022/04/29 00:57:17;;;;;;;13.10;8.75;;;6.10;99.90;;;;;;5026431;28;20057;-46
2022/04/29 00:59:51;;;;;;;16.40;10.23;;;6.10;99.90;;;;;;5041356;28;20489;-46
2022/04/29 01:02:17;;;;;;;12.93;9.82;;;6.00;99.90;;;;;;5043849;28;20496;-45
2022/04/29 01:05:12;;;;;;;12.98;9.57;;;6.00;99.90;;;;;;5045212;28;20075;-48
2022/04/29 01:07:40;;;;;;;12.95;9.27;;;6.00;99.90;;;;;;5044694;28;20523;-46
2022/04/29 01:10:08;;;;;;;20.00;11.13;;;5.90;99.90;;;;;;5008014;28;20167;-48
2022/04/29 01:12:36;;;;;;;17.98;11.18;;;5.80;99.90;;;;;;5040539;28;20088;-50
2022/04/29 01:15:06;;;;;;;14.10;9.48;;;5.80;99.90;;;;;;5042586;28;20063;-45
2022/04/29 01:17:37;;;;;;;22.42;10.77;;;5.70;99.90;;;;;;5026143;28;20044;-53
2022/04/29 01:20:09;;;;;;;14.35;10.18;;;5.70;99.90;;;;;;5044718;28;20044;-52
2022/04/29 01:22:35;;;;;;;15.88;11.20;;;5.70;99.90;;;;;;5006337;28;20052;-51
2022/04/29 01:25:03;;;;;;;14.13;11.05;;;5.60;99.90;;;;;;5025237;28;20053;-53
2022/04/29 01:27:29;;;;;;;22.48;10.55;;;5.60;99.90;;;;;;5040573;28;20049;-52
2022/04/29 01:30:04;;;;;;;15.60;10.43;;;5.60;99.90;;;;;;5041211;28;20127;-49
2022/04/29 01:32:32;;;;;;;13.18;11.00;;;5.60;99.90;;;;;;5041532;28;20060;-45
2022/04/29 01:34:59;;;;;;;19.08;11.25;;;5.60;99.90;;;;;;5036319;28;20042;-52
2022/04/29 01:37:26;;;;;;;17.80;11.05;;;5.60;99.90;;;;;;5038872;28;20106;-53
2022/04/29 01:39:52;;;;;;;16.23;11.73;;;5.60;99.90;;;;;;5026782;28;20053;-50
2022/04/29 01:42:19;;;;;;;16.88;12.85;;;5.60;99.90;;;;;;5040405;28;20049;-45
2022/04/29 01:44:45;;;;;;;17.30;12.40;;;5.60;99.90;;;;;;5008847;28;20068;-48
2022/04/29 01:47:13;;;;;;;18.00;12.10;;;5.60;99.90;;;;;;5040602;28;20049;-49
2022/04/29 01:50:08;;;;;;;18.63;12.88;;;5.50;99.90;;;;;;5027052;28;20053;-50
2022/04/29 01:52:36;;;;;;;13.88;12.20;;;5.50;99.90;;;;;;5041221;28;20083;-50
2022/04/29 01:55:02;;;;;;;17.70;11.98;;;5.50;99.90;;;;;;5035175;28;20049;-50
2022/04/29 01:57:31;;;;;;;20.17;11.68;;;5.50;99.90;;;;;;5002960;28;20115;-51
2022/04/29 01:59:57;;;;;;;15.40;12.07;;;5.40;99.90;;;;;;5039711;28;20075;-51
2022/04/29 02:02:41;;;;;;;15.32;11.65;;;5.40;99.90;;;;;;5037836;28;20083;-47
2022/04/29 02:05:08;;;;;;;17.65;12.65;;;5.40;99.90;;;;;;5015497;28;20132;-51
2022/04/29 02:07:34;;;;;;;14.77;11.38;;;5.40;99.90;;;;;;5022594;28;20114;-53
2022/04/29 02:10:01;;;;;;;19.45;11.90;;;5.40;99.90;;;;;;4992175;28;20049;-52
2022/04/29 02:12:29;;;;;;;17.35;12.65;;;5.30;99.90;;;;;;5040006;28;20049;-49
2022/04/29 02:14:56;;;;;;;18.88;12.88;;;5.30;99.90;;;;;;5023656;28;20059;-52
2022/04/29 02:17:27;;;;;;;18.50;11.73;;;5.30;99.90;;;;;;4994533;28;20055;-53
2022/04/29 02:19:53;;;;;;;15.77;12.18;;;5.20;99.90;;;;;;5039345;28;20156;-51
2022/04/29 02:22:19;;;;;;;21.13;13.45;;;5.20;99.90;;;;;;5041496;28;20057;-53
2022/04/29 02:24:45;;;;;;;16.83;11.27;;;5.20;99.90;;;;;;5039932;28;20681;-49
2022/04/29 02:27:14;;;;;;;16.75;11.73;;;5.20;99.90;;;;;;5038547;28;20107;-51
2022/04/29 02:29:40;;;;;;;19.90;11.18;;;5.20;99.90;;;;;;5036083;28;20053;-50
2022/04/29 02:32:25;;;;;;;19.80;12.27;;;5.20;99.90;;;;;;5024975;28;20485;-47
2022/04/29 02:34:51;;;;;;;18.75;11.43;;;5.20;99.90;;;;;;5038063;28;20110;-50
2022/04/29 02:37:17;;;;;;;15.30;11.27;;;5.20;99.90;;;;;;5055823;28;20053;-50
2022/04/29 02:39:47;;;;;;;23.35;12.13;;;5.20;99.90;;;;;;5025087;28;20075;-45
2022/04/29 02:42:13;;;;;;;20.60;11.85;;;5.30;99.90;;;;;;5024487;28;20048;-47
2022/04/29 02:44:40;;;;;;;16.13;11.43;;;5.30;99.90;;;;;;5040299;28;20676;-51
2022/04/29 02:47:07;;;;;;;18.60;11.98;;;5.30;99.90;;;;;;5004320;28;20057;-51
2022/04/29 02:49:39;;;;;;;17.55;12.00;;;5.20;99.90;;;;;;5004709;28;20053;-50
2022/04/29 02:52:15;;;;;;;16.67;10.63;;;5.30;99.90;;;;;;5022953;28;20044;-51
2022/04/29 02:54:42;;;;;;;13.25;11.25;;;5.20;99.90;;;;;;5038660;28;20048;-54
2022/04/29 02:57:40;;;;;;;15.40;12.10;;;5.30;99.90;;;;;;5005992;28;20048;-51
2022/04/29 03:00:06;;;;;;;16.13;11.10;;;5.20;99.90;;;;;;5040558;28;20106;-52
2022/04/29 03:02:33;;;;;;;22.05;12.00;;;5.30;99.90;;;;;;5042935;28;20450;-49
2022/04/29 03:05:01;;;;;;;15.77;10.85;;;5.20;99.90;;;;;;5022308;28;20498;-50
2022/04/29 03:07:27;;;;;;;19.52;12.32;;;5.30;99.90;;;;;;5025953;28;20063;-47
2022/04/29 03:09:56;;;;;;;17.25;11.32;;;5.30;99.90;;;;;;5023634;28;20052;-50
2022/04/29 03:12:23;;;;;;;17.40;11.93;;;5.30;99.90;;;;;;5024070;28;20085;-47
2022/04/29 03:15:15;;;;;;;18.73;10.60;;;5.30;99.90;;;;;;5040809;28;20045;-49
2022/04/29 03:20:29;;;;;;;19.75;10.60;;;5.30;99.90;;;;;;5040184;28;20045;-47
2022/04/29 03:22:56;;;;;;;19.40;11.75;;;5.30;99.90;;;;;;5006904;28;20508;-50
2022/04/29 03:25:22;;;;;;;16.48;11.52;;;5.20;99.90;;;;;;5021375;28;20057;-52
2022/04/29 03:27:48;;;;;;;22.88;11.88;;;5.30;99.90;;;;;;5002235;28;20083;-54
2022/04/29 03:30:15;;;;;;;17.42;11.93;;;5.30;99.90;;;;;;5038496;28;20056;-51
2022/04/29 03:32:48;;;;;;;15.25;11.25;;;5.20;99.90;;;;;;5033662;28;20052;-48
2022/04/29 03:35:20;;;;;;;20.85;12.75;;;5.20;99.90;;;;;;5036502;28;20144;-45
2022/04/29 03:37:46;;;;;;;21.25;12.00;;;5.10;99.90;;;;;;5050157;28;20051;-46
2022/04/29 03:40:14;;;;;;;19.02;12.85;;;5.10;99.90;;;;;;5029252;28;20088;-46
2022/04/29 03:42:40;;;;;;;17.17;11.18;;;5.10;99.90;;;;;;5012103;28;20045;-48
2022/04/29 03:45:07;;;;;;;20.90;12.18;;;5.00;99.90;;;;;;5026344;28;20493;-50
2022/04/29 03:47:33;;;;;;;15.30;11.23;;;5.00;99.90;;;;;;5026393;28;20052;-51
2022/04/29 03:50:14;;;;;;;17.10;10.73;;;5.00;99.90;;;;;;5043596;28;20179;-49
2022/04/29 03:53:02;;;;;;;19.27;11.75;;;4.90;99.90;;;;;;5044372;28;20053;-45
2022/04/29 03:55:33;;;;;;;19.40;12.45;;;5.00;99.90;;;;;;5044598;28;20053;-47
2022/04/29 03:58:02;;;;;;;18.40;13.05;;;4.90;99.90;;;;;;5045705;28;20056;-46
2022/04/29 04:00:32;;;;;;;15.65;11.35;;;4.90;99.90;;;;;;5025024;28;20118;-45
2022/04/29 04:03:00;;;;;;;15.52;12.32;;;4.90;99.90;;;;;;5034290;28;20124;-49
2022/04/29 04:05:26;;;;;;;21.80;12.85;;;4.90;99.90;;;;;;5041789;28;20071;-51
2022/04/29 04:07:52;;;;;;;18.13;12.30;;;4.90;99.90;;;;;;5042478;28;20444;-49
2022/04/29 04:10:32;;;;;;;18.33;13.93;;;4.90;99.90;;;;;;5040615;28;20155;-51
2022/04/29 04:12:58;;;;;;;18.85;13.30;;;4.90;99.90;;;;;;5044525;28;20661;-50
2022/04/29 04:15:44;;;;;;;22.00;13.45;;;4.80;99.90;;;;;;5036397;28;20404;-51
2022/04/29 04:18:10;;;;;;;22.92;14.07;;;4.80;99.90;;;;;;5042036;28;20052;-49
2022/04/29 04:20:36;;;;;;;17.08;12.57;;;4.80;99.90;;;;;;5043380;28;20056;-53
2022/04/29 04:23:05;;;;;;;19.15;14.30;;;4.90;99.90;;;;;;5038255;28;20644;-51
2022/04/29 04:25:31;;;;;;;17.52;13.23;;;4.90;99.90;;;;;;5037148;28;20053;-51
2022/04/29 04:27:58;;;;;;;21.92;13.50;;;4.90;99.90;;;;;;5026107;28;20044;-48
2022/04/29 04:30:36;;;;;;;21.08;14.32;;;5.00;99.90;;;;;;5040114;28;20049;-52
2022/04/29 04:33:02;;;;;;;23.45;13.68;;;5.00;99.90;;;;;;5041186;28;20048;-49
2022/04/29 04:35:28;;;;;;;20.55;14.60;;;5.10;99.90;;;;;;5025792;28;20123;-52
2022/04/29 04:37:55;;;;;;;19.77;13.82;;;5.10;99.90;;;;;;5044325;28;20151;-51
2022/04/29 04:40:37;;;;;;;26.60;14.95;;;5.20;99.90;;;;;;5042957;28;20087;-53
2022/04/29 04:43:03;;;;;;;18.92;14.27;;;5.20;99.90;;;;;;5024928;28;20057;-49
2022/04/29 04:45:32;;;;;;;21.42;14.18;;;5.30;99.90;;;;;;5036760;28;20064;-49
2022/04/29 04:48:22;;;;;;;22.50;14.25;;;5.30;99.90;;;;;;5027118;28;20398;-46
2022/04/29 04:51:06;;;;;;;21.48;14.05;;;5.40;99.90;;;;;;5042119;28;20138;-47
2022/04/29 04:53:36;;;;;;;21.95;14.07;;;5.50;99.90;;;;;;5044513;28;20056;-48
2022/04/29 04:56:03;;;;;;;25.63;14.02;;;5.50;99.90;;;;;;5057482;28;20067;-50
2022/04/29 04:58:32;;;;;;;20.50;13.77;;;5.60;99.90;;;;;;5025769;28;20057;-49
2022/04/29 05:00:59;;;;;;;21.77;13.40;;;5.70;99.90;;;;;;5023504;28;20053;-50
2022/04/29 05:03:45;;;;;;;17.33;13.43;;;5.80;99.90;;;;;;5032184;28;20701;-50
2022/04/29 05:06:30;;;;;;;23.13;14.68;;;5.90;99.90;;;;;;5036008;28;20056;-53
2022/04/29 05:08:57;;;;;;;20.00;13.13;;;6.00;99.90;;;;;;5037285;28;20045;-49
2022/04/29 05:11:23;;;;;;;20.33;13.57;;;6.10;99.90;;;;;;5042791;28;20052;-48
2022/04/29 05:13:53;;;;;;;23.02;13.25;;;6.20;99.90;;;;;;5039021;28;21688;-50
2022/04/29 05:16:20;;;;;;;19.25;12.88;;;6.30;99.90;;;;;;5007967;28;20224;-48
2022/04/29 05:19:22;;;;;;;24.50;13.60;;;6.40;99.90;;;;;;4984417;28;20141;-52
2022/04/29 05:21:51;;;;;;;20.83;12.73;;;6.50;99.90;;;;;;5018870;28;20087;-52
2022/04/29 05:24:17;;;;;;;15.68;12.90;;;6.60;99.90;;;;;;5056901;28;20063;-49
2022/04/29 05:27:07;;;;;;;21.95;12.55;;;6.70;99.90;;;;;;5040581;28;20508;-53
2022/04/29 05:29:52;;;;;;;16.88;12.25;;;6.80;99.90;;;;;;5042102;28;20048;-49
2022/04/29 05:32:48;;;;;;;17.52;12.18;;;6.90;99.90;;;;;;5007725;28;20049;-51
2022/04/29 05:35:34;;;;;;;20.52;14.57;;;7.10;99.90;;;;;;5042391;28;20759;-51
2022/04/29 05:38:21;;;;;;;17.83;11.77;;;7.20;99.90;;;;;;4984788;28;20052;-52
2022/04/29 05:43:32;;;;;;;20.13;13.65;;;7.40;99.90;;;;;;5057289;28;20141;-46
2022/04/29 05:45:58;;;;;;;18.27;11.40;;;7.70;99.90;;;;;;5041488;28;20076;-47
2022/04/29 05:48:24;;;;;;;19.77;10.88;;;7.70;99.90;;;;;;5005099;28;20056;-45
2022/04/29 05:50:51;;;;;;;10.95;9.38;;;7.80;99.90;;;;;;5025366;28;20048;-47
2022/04/29 05:53:17;;;;;;;13.05;9.63;;;7.80;99.90;;;;;;5047287;28;20060;-46
2022/04/29 05:55:55;;;;;;;14.00;8.95;;;7.90;99.90;;;;;;5025157;28;20064;-46
2022/04/29 05:58:22;;;;;;;15.05;9.43;;;8.00;99.90;;;;;;5007962;28;20063;-48
2022/04/29 06:01:04;;;;;;;16.73;10.20;;;8.00;99.90;;;;;;5036526;28;20088;-50
2022/04/29 06:03:32;;;;;;;13.80;9.50;;;8.00;99.90;;;;;;5032566;28;20041;-50
2022/04/29 06:05:58;;;;;;;15.18;9.23;;;8.00;99.90;;;;;;5040110;28;20091;-49
2022/04/29 06:08:24;;;;;;;17.77;15.38;;;8.10;99.90;;;;;;5017395;28;20084;-45
2022/04/29 06:10:51;;;;;;;11.98;9.27;;;8.10;99.90;;;;;;5017513;28;20100;-50
2022/04/29 06:13:17;;;;;;;14.15;9.38;;;8.20;99.90;;;;;;4980986;28;20830;-45
2022/04/29 06:16:18;;;;;;;12.00;8.75;;;8.10;99.90;;;;;;5032558;28;20127;-49
2022/04/29 06:19:03;;;;;;;17.90;11.98;;;8.20;99.90;;;;;;5035506;28;20871;-52
2022/04/29 06:21:49;;;;;;;17.45;11.40;;;8.30;99.90;;;;;;5018558;28;20143;-48
2022/04/29 06:24:21;;;;;;;16.27;12.27;;;8.30;99.90;;;;;;5007750;28;20760;-46
2022/04/29 06:26:48;;;;;;;14.93;11.88;;;8.40;99.90;;;;;;5006210;28;20567;-47
2022/04/29 06:29:15;;;;;;;16.90;11.60;;;8.40;99.90;;;;;;5054615;28;20044;-47
2022/04/29 06:31:41;;;;;;;10.88;9.68;;;8.40;99.90;;;;;;5042086;28;20414;-52
2022/04/29 06:34:37;;;;;;;22.50;16.70;;;8.50;99.90;;;;;;5042995;28;20048;-49
2022/04/29 06:37:05;;;;;;;13.20;8.80;;;8.60;99.90;;;;;;5041036;28;20056;-47
2022/04/29 06:39:32;;;;;;;10.60;8.57;;;8.70;99.90;;;;;;5028467;28;20057;-46
2022/04/29 06:42:18;;;;;;;33.72;28.20;;;8.80;99.90;;;;;;5047520;28;20080;-45
2022/04/29 06:45:10;;;;;;;20.58;15.13;;;8.90;99.90;;;;;;5027368;28;20467;-46
2022/04/29 06:47:55;;;;;;;15.02;9.68;;;9.10;99.90;;;;;;5032646;28;20057;-48
2022/04/29 06:50:53;;;;;;;16.88;8.65;;;9.20;99.90;;;;;;5022264;28;20049;-48
2022/04/29 06:53:52;;;;;;;13.55;9.40;;;9.30;99.90;;;;;;5023220;28;20053;-47
2022/04/29 06:56:25;;;;;;;12.27;6.80;;;9.30;99.90;;;;;;5014471;28;20697;-53
2022/04/29 06:58:53;;;;;;;23.60;16.92;;;9.40;99.90;;;;;;5011464;28;20647;-53
2022/04/29 07:01:22;;;;;;;13.90;8.32;;;9.60;99.90;;;;;;5018216;28;20049;-53
2022/04/29 07:03:48;;;;;;;35.22;26.67;;;9.40;99.90;;;;;;5021074;28;20091;-49
2022/04/29 07:06:14;;;;;;;13.88;8.23;;;9.50;99.90;;;;;;5036921;28;20052;-52
2022/04/29 07:08:41;;;;;;;18.42;10.20;;;9.50;99.90;;;;;;5040836;28;20056;-49
2022/04/29 07:11:26;;;;;;;11.27;7.60;;;9.50;99.90;;;;;;5042552;28;20043;-52
2022/04/29 07:14:06;;;;;;;18.13;11.98;;;9.50;99.90;;;;;;4985850;28;20096;-50
2022/04/29 07:16:49;;;;;;;10.35;7.80;;;9.50;99.90;;;;;;5041031;28;20415;-52
2022/04/29 07:19:40;;;;;;;15.93;11.00;;;9.50;99.90;;;;;;5031901;28;20829;-52
2022/04/29 07:22:06;;;;;;;13.45;8.02;;;9.60;99.90;;;;;;5033835;28;20134;-53
2022/04/29 07:24:36;;;;;;;18.15;12.80;;;9.60;99.90;;;;;;4996229;28;20057;-51
2022/04/29 07:27:05;;;;;;;22.17;16.85;;;9.60;99.90;;;;;;5030888;28;20049;-51
2022/04/29 07:29:31;;;;;;;11.30;6.15;;;9.70;99.90;;;;;;5020994;28;20081;-53
2022/04/29 07:32:04;;;;;;;;;;;9.70;99.90;;;;;;5015750;28;20099;-53
2022/04/29 07:43:53;;;;;;;21.50;16.33;;;10.20;99.90;;;;;;5040594;28;20485;-53
2022/04/29 07:46:21;;;;;;;15.82;10.27;;;10.50;99.90;;;;;;5041010;28;20496;-53
2022/04/29 07:48:48;;;;;;;10.90;7.43;;;10.60;99.90;;;;;;5042168;28;20100;-50
2022/04/29 07:51:15;;;;;;;8.73;6.63;;;10.70;99.90;;;;;;5026172;28;20041;-53
2022/04/29 07:53:41;;;;;;;13.73;9.35;;;11.00;99.90;;;;;;5016521;28;20197;-53
2022/04/29 07:56:07;;;;;;;10.93;7.88;;;11.00;99.90;;;;;;5025386;28;20056;-51
2022/04/29 07:58:37;;;;;;;9.68;5.97;;;11.00;99.90;;;;;;5013482;28;20873;-54
2022/04/29 08:01:09;;;;;;;14.63;11.48;;;11.10;99.90;;;;;;5024737;28;20127;-53
2022/04/29 08:03:39;;;;;;;11.25;5.30;;;11.30;99.90;;;;;;5024086;28;20555;-54
2022/04/29 08:06:08;;;;;;;9.85;7.10;;;11.70;99.90;;;;;;5024816;28;20493;-54
2022/04/29 08:08:37;;;;;;;10.95;8.18;;;12.20;99.90;;;;;;5038183;28;20072;-54
2022/04/29 08:11:05;;;;;;;9.23;4.95;;;12.70;99.90;;;;;;5040895;28;20119;-54
2022/04/29 08:13:40;;;;;;;6.18;3.95;;;12.70;99.90;;;;;;4992750;28;20041;-53
2022/04/29 08:16:25;;;;;;;9.18;5.22;;;12.70;99.90;;;;;;5025226;28;20056;-54
2022/04/29 08:19:13;;;;;;;7.97;4.15;;;12.60;99.90;;;;;;4996737;28;20076;-54
2022/04/29 08:22:01;;;;;;;10.30;4.68;;;12.20;99.90;;;;;;4993763;28;20061;-53
2022/04/29 08:24:28;;;;;;;8.20;4.82;;;12.10;99.90;;;;;;5044238;28;20053;-54
2022/04/29 08:26:55;;;;;;;8.70;5.35;;;12.10;99.90;;;;;;5045278;28;20049;-53
2022/04/29 08:29:21;;;;;;;9.57;4.28;;;12.50;99.90;;;;;;5061443;28;20044;-54
2022/04/29 08:31:48;;;;;;;9.07;5.03;;;12.70;99.90;;;;;;5011863;28;20125;-54
2022/04/29 08:34:17;;;;;;;9.35;5.22;;;12.80;99.90;;;;;;5014116;28;20061;-54
2022/04/29 08:36:44;;;;;;;12.85;5.28;;;13.20;99.90;;;;;;5040476;28;20471;-46
2022/04/29 08:39:11;;;;;;;8.88;3.92;;;13.60;99.90;;;;;;5044376;28;20059;-48
2022/04/29 08:41:39;;;;;;;9.63;4.20;;;14.00;99.90;;;;;;5040674;28;20581;-48
2022/04/29 08:44:10;;;;;;;8.55;3.30;;;14.00;99.90;;;;;;5013355;28;20111;-51
2022/04/29 08:46:58;;;;;;;8.13;3.58;;;14.20;99.90;;;;;;5017070;28;20053;-45
2022/04/29 08:49:40;;;;;;;7.13;3.13;;;14.10;99.90;;;;;;5043332;28;20111;-45
2022/04/29 08:52:06;;;;;;;8.32;2.67;;;14.40;99.90;;;;;;5027137;28;20140;-55
2022/04/29 09:00:06;;;;;;;6.75;3.70;;;14.20;99.90;;;;;;5012837;28;20107;-53
2022/04/29 09:02:40;;;;;;;7.85;3.25;;;14.00;99.90;;;;;;5026258;28;20084;-53
2022/04/29 09:05:10;;;;;;;9.90;4.75;;;13.70;99.90;;;;;;5035441;28;20049;-53
2022/04/29 09:07:59;;;;;;;5.93;2.70;;;13.60;99.90;;;;;;5036793;28;20528;-53
2022/04/29 09:10:34;;;;;;;8.35;3.05;;;13.50;99.90;;;;;;5045252;28;20108;-53
2022/04/29 09:13:16;;;;;;;8.57;4.43;;;13.30;99.90;;;;;;5025315;28;20069;-53
2022/04/29 09:16:10;;;;;;;9.65;3.42;;;13.10;99.90;;;;;;5039859;28;20455;-57
2022/04/29 09:18:44;;;;;;;7.78;3.35;;;13.40;99.90;;;;;;5030155;28;20163;-45
2022/04/29 09:21:24;;;;;;;7.88;2.83;;;13.70;99.90;;;;;;5041640;28;20060;-50
2022/04/29 09:24:03;;;;;;;10.48;5.25;;;14.00;99.90;;;;;;5033979;28;20057;-50
2022/04/29 09:27:03;;;;;;;8.77;3.25;;;14.70;99.90;;;;;;5043333;28;20049;-46
2022/04/29 09:29:56;;;;;;;3.83;2.42;;;14.90;99.90;;;;;;5023690;28;20421;-47
2022/04/29 09:32:48;;;;;;;9.63;2.67;;;14.70;99.90;;;;;;5044235;28;20049;-48
2022/04/29 09:35:47;;;;;;;6.67;2.87;;;15.00;99.90;;;;;;5038250;28;20049;-50
2022/04/29 09:40:59;;;;;;;5.47;2.85;;;14.60;99.90;;;;;;5059630;28;20056;-50
2022/04/29 09:43:45;;;;;;;8.30;4.82;;;14.70;99.90;;;;;;5031716;28;20149;-51
2022/04/29 09:46:22;;;;;;;6.93;3.55;;;14.90;99.90;;;;;;5035286;28;20071;-47
2022/04/29 09:49:06;;;;;;;9.50;3.75;;;15.20;99.90;;;;;;5033147;28;20419;-48
2022/04/29 09:51:47;;;;;;;6.38;3.00;;;15.80;99.90;;;;;;5025872;28;20048;-46
2022/04/29 09:54:23;;;;;;;10.93;5.47;;;15.40;99.90;;;;;;5033744;28;20044;-50
2022/04/29 09:57:23;;;;;;;7.30;4.78;;;15.30;99.90;;;;;;5026785;28;20178;-50
2022/04/29 09:59:58;;;;;;;8.15;3.03;;;14.90;99.80;;;;;;5006038;28;20051;-52
2022/04/29 10:02:29;;;;;;;8.15;3.60;;;14.80;99.70;;;;;;5040583;28;20130;-48
2022/04/29 10:05:01;;;;;;;10.23;6.15;;;14.80;98.10;;;;;;5015086;28;20084;-53
2022/04/29 10:07:27;;;;;;;7.25;3.22;;;14.80;95.50;;;;;;5013424;28;20060;-51
2022/04/29 10:09:59;;;;;;;7.10;3.58;;;14.50;92.70;;;;;;5023852;28;20150;-46
2022/04/29 10:12:29;;;;;;;6.45;3.00;;;14.40;91.80;;;;;;5028311;28;20404;-54
2022/04/29 10:15:17;;;;;;;9.95;7.30;;;14.30;89.50;;;;;;5033572;28;20045;-53
2022/04/29 10:23:39;;;;;;;7.40;4.85;;;13.80;89.00;;;;;;5029625;28;20099;-54
2022/04/29 10:26:06;;;;;;;9.82;5.38;;;13.70;89.20;;;;;;5029858;28;20500;-49
2022/04/29 10:28:32;;;;;;;6.82;3.10;;;13.70;89.60;;;;;;5024520;28;20041;-46
2022/04/29 10:31:15;;;;;;;7.40;2.92;;;13.80;90.10;;;;;;5012456;28;20040;-48
2022/04/29 10:33:42;;;;;;;8.90;3.10;;;13.90;86.00;;;;;;5030574;28;20057;-47
2022/04/29 10:36:12;;;;;;;6.85;4.00;;;13.90;87.60;;;;;;5026253;28;20111;-53
2022/04/29 10:38:39;;;;;;;8.07;3.97;;;13.70;86.50;;;;;;5020546;28;20052;-49
2022/04/29 10:41:15;;;;;;;8.18;4.95;;;13.70;90.40;;;;;;5029495;28;20522;-53
2022/04/29 10:43:50;;;;;;;7.43;4.28;;;13.60;88.00;;;;;;5030327;28;20433;-49
2022/04/29 10:46:21;;;;;;;6.10;3.15;;;13.50;91.80;;;;;;5033265;28;20059;-49
2022/04/29 10:48:53;;;;;;;7.57;2.90;;;13.40;90.70;;;;;;5012230;28;20319;-55
2022/04/29 10:51:51;;;;;;;11.63;6.38;;;13.50;94.60;;;;;;5034121;28;20931;-52
2022/04/29 10:54:35;;;;;;;35.80;29.17;;;13.50;94.90;;;;;;5030213;28;20049;-55
2022/04/29 10:57:36;;;;;;;12.25;6.60;;;13.60;95.20;;;;;;5033018;28;20045;-53
2022/04/29 11:00:10;;;;;;;9.57;2.60;;;13.80;94.70;;;;;;5036614;28;20057;-48
2022/04/29 11:02:40;;;;;;;10.10;3.03;;;13.90;95.40;;;;;;5028464;28;20052;-52
2022/04/29 11:05:08;;;;;;;6.35;3.88;;;14.00;94.60;;;;;;5027634;28;20123;-48
2022/04/29 11:07:42;;;;;;;6.25;4.78;;;13.90;92.70;;;;;;5051572;28;20136;-48
2022/04/29 11:10:20;;;;;;;5.15;2.60;;;13.90;90.60;;;;;;5038182;28;20161;-54
2022/04/29 11:18:15;;;;;;;7.32;4.05;;;14.00;99.90;;;;;;5029225;28;20076;-50
2022/04/29 11:20:45;;;;;;;8.88;5.38;;;13.90;93.20;;;;;;5026941;28;20045;-45
2022/04/29 11:26:09;;;;;;;9.48;6.25;;;13.80;93.40;;;;;;4965505;28;20680;-50
2022/04/29 11:28:51;;;;;;;8.38;3.55;;;13.80;92.30;;;;;;5013696;28;20120;-55
2022/04/29 11:31:35;;;;;;;10.23;5.03;;;13.80;92.10;;;;;;5024499;28;20053;-55
2022/04/29 11:34:20;;;;;;;9.25;3.17;;;13.80;91.40;;;;;;5029714;28;20053;-55
2022/04/29 11:36:47;;;;;;;9.30;5.53;;;13.90;88.50;;;;;;5028843;28;20135;-55
2022/04/29 11:39:18;;;;;;;8.60;4.15;;;13.80;90.80;;;;;;5030976;28;20045;-55
2022/04/29 11:41:58;;;;;;;11.17;5.83;;;13.80;86.40;;;;;;5039871;28;20051;-55
2022/04/29 11:44:38;;;;;;;7.93;4.97;;;13.70;89.20;;;;;;5050638;28;20580;-53
2022/04/29 11:47:05;;;;;;;8.02;4.07;;;13.70;88.60;;;;;;5032863;28;20052;-55
2022/04/29 11:49:32;;;;;;;6.07;3.83;;;13.90;92.10;;;;;;5028735;28;20049;-54
2022/04/29 11:52:25;;;;;;;8.88;5.10;;;13.80;89.90;;;;;;5031514;28;20037;-54
2022/04/29 11:54:59;;;;;;;8.45;4.43;;;13.90;85.30;;;;;;5034476;28;20171;-53
2022/04/29 11:57:31;;;;;;;6.75;4.25;;;14.10;89.80;;;;;;5036560;28;20126;-55
2022/04/29 12:00:03;;;;;;;8.38;4.35;;;14.10;80.90;;;;;;5036161;28;20471;-55
2022/04/29 12:02:45;;;;;;;7.28;5.47;;;13.90;79.00;;;;;;5033461;28;20049;-55
2022/04/29 12:05:13;;;;;;;10.38;5.47;;;13.90;81.10;;;;;;5053391;28;20509;-54
2022/04/29 12:07:42;;;;;;;6.95;4.03;;;14.00;81.90;;;;;;5018329;28;20053;-55
2022/04/29 12:10:26;;;;;;;9.65;5.88;;;14.00;90.70;;;;;;5017291;28;20607;-54
2022/04/29 12:12:55;;;;;;;5.72;4.57;;;14.20;83.30;;;;;;5034630;28;20048;-48
2022/04/29 12:15:43;;;;;;;9.60;7.93;;;14.30;84.90;;;;;;5032008;28;20053;-48
2022/04/29 12:18:15;;;;;;;8.50;5.97;;;14.40;81.10;;;;;;5030844;28;20128;-46
2022/04/29 12:20:45;;;;;;;9.73;6.20;;;14.60;79.50;;;;;;5032790;28;20053;-47
2022/04/29 12:23:13;;;;;;;7.80;5.82;;;14.70;77.30;;;;;;5036639;28;20064;-47
2022/04/29 12:25:42;;;;;;;9.27;7.25;;;14.80;74.10;;;;;;5032772;28;20076;-48
2022/04/29 12:28:23;;;;;;;8.75;6.40;;;14.80;72.20;;;;;;4996816;28;20045;-46
2022/04/29 12:37:08;;;;;;;9.88;7.63;;;15.20;69.00;;;;;;5027129;28;20056;-46
2022/04/29 12:39:50;;;;;;;9.98;7.35;;;15.00;65.40;;;;;;5040886;28;20120;-45
2022/04/29 12:42:27;;;;;;;7.18;4.53;;;14.70;67.10;;;;;;5034397;28;20059;-47
2022/04/29 12:48:07;;;;;;;9.35;6.53;;;14.70;68.30;;;;;;5001899;28;20140;-46
2022/04/29 12:50:42;;;;;;;10.68;5.43;;;14.50;68.50;;;;;;5012082;28;20106;-46
2022/04/29 12:53:16;;;;;;;8.02;5.13;;;14.40;70.60;;;;;;5028255;28;20041;-55
2022/04/29 12:55:46;;;;;;;10.43;6.78;;;14.10;71.50;;;;;;5029292;28;20695;-55
2022/04/29 12:58:26;;;;;;;10.55;7.28;;;14.10;72.50;;;;;;5032572;28;20163;-54
2022/04/29 13:00:56;;;;;;;9.95;5.47;;;14.20;73.50;;;;;;5039409;28;20049;-55
2022/04/29 13:03:29;;;;;;;9.32;5.57;;;14.30;73.40;;;;;;5029730;28;20083;-55
2022/04/29 13:06:03;;;;;;;15.75;12.45;;;14.40;74.20;;;;;;5011251;28;20135;-56
2022/04/29 13:08:39;;;;;;;14.68;8.80;;;14.40;72.10;;;;;;5029530;28;20065;-54
2022/04/29 13:11:05;;;;;;;8.45;4.47;;;14.60;69.20;;;;;;5015271;28;20072;-56
2022/04/29 13:13:32;;;;;;;6.55;5.55;;;14.70;71.40;;;;;;5031874;28;20103;-56
2022/04/29 13:15:59;;;;;;;11.73;7.68;;;14.70;70.10;;;;;;5009304;28;20056;-55
2022/04/29 13:18:30;;;;;;;11.63;8.60;;;14.90;66.70;;;;;;5020194;28;20048;-56
2022/04/29 13:20:56;;;;;;;17.63;12.95;;;15.00;64.80;;;;;;5012277;28;20049;-46
2022/04/29 13:23:30;;;;;;;7.85;5.40;;;14.90;65.30;;;;;;5032413;28;20408;-51
2022/04/29 13:26:06;;;;;;;10.57;7.43;;;14.70;65.70;;;;;;5033204;28;20753;-48
2022/04/29 13:28:33;;;;;;;10.18;6.45;;;14.80;65.80;;;;;;5035911;28;20090;-52
2022/04/29 13:31:02;;;;;;;9.23;6.70;;;15.10;65.40;;;;;;5018538;28;20107;-49
2022/04/29 13:33:49;;;;;;;7.82;5.15;;;15.00;64.10;;;;;;4996047;28;20041;-47
2022/04/29 13:36:16;;;;;;;13.93;10.23;;;15.00;63.90;;;;;;5042808;28;20037;-51
2022/04/29 13:38:42;;;;;;;6.18;4.30;;;15.20;62.70;;;;;;5029678;28;20045;-47
2022/04/29 13:41:11;;;;;;;10.98;4.88;;;15.50;61.20;;;;;;5041680;28;20116;-47
2022/04/29 13:43:38;;;;;;;8.15;5.00;;;15.60;61.20;;;;;;5031288;28;20041;-47
2022/04/29 13:46:05;;;;;;;6.65;4.13;;;15.60;60.60;;;;;;5034417;28;20115;-57
2022/04/29 13:48:43;;;;;;;8.93;4.90;;;16.20;60.00;;;;;;5027836;28;20045;-58
2022/04/29 13:51:11;;;;;;;9.48;5.82;;;16.10;58.70;;;;;;5020828;28;20175;-58
2022/04/29 13:53:38;;;;;;;12.18;7.75;;;16.20;58.30;;;;;;5039150;28;20390;-57
2022/04/29 13:56:05;;;;;;;10.88;7.57;;;16.10;58.00;;;;;;5014035;28;20465;-55